Time;durP1;ratioP1;P1;durP2;ratioP2;P2;SDS_P1;SDS_P2;PMS_P1;PMS_P2;Temp;Humidity;BMP_temperature;BMP_pressure;BME280_temperature;BME280_humidity;BME280_pressure;Samples;Min_cycle;Max_cycle;Signal;HPM_P1;HPM_P2
2022/10/03 00:02:19;;;;;;;3.67;1.80;;;6.90;99.90;;;;;;5010778;28;20058;-76
2022/10/03 00:05:09;;;;;;;1.92;1.63;;;6.90;99.90;;;;;;5031787;28;20057;-76
2022/10/03 00:08:02;;;;;;;2.28;2.05;;;6.90;99.90;;;;;;5036218;28;20144;-76
2022/10/03 00:10:39;;;;;;;3.25;1.75;;;6.90;99.90;;;;;;5026726;28;20430;-76
2022/10/03 00:13:17;;;;;;;2.00;1.85;;;6.80;99.90;;;;;;5012596;28;20050;-77
2022/10/03 00:15:52;;;;;;;1.40;1.30;;;6.80;99.90;;;;;;5018478;28;20104;-77
2022/10/03 00:18:34;;;;;;;2.28;1.52;;;6.80;99.90;;;;;;5030543;28;20065;-76
2022/10/03 00:21:17;;;;;;;1.65;1.55;;;6.90;99.90;;;;;;5031745;28;20053;-76
2022/10/03 00:23:57;;;;;;;2.53;1.40;;;6.80;99.90;;;;;;5019596;28;20133;-77
2022/10/03 00:26:34;;;;;;;3.35;1.70;;;6.90;99.90;;;;;;5025379;28;20103;-76
2022/10/03 00:29:36;;;;;;;1.20;1.10;;;6.90;99.90;;;;;;5015675;28;20053;-77
2022/10/03 00:32:20;;;;;;;1.55;1.45;;;6.90;99.90;;;;;;5016112;28;20430;-76
2022/10/03 00:35:17;;;;;;;2.25;1.40;;;6.90;99.90;;;;;;5045115;28;20116;-76
2022/10/03 00:38:01;;;;;;;1.52;1.42;;;6.90;99.90;;;;;;5015103;28;20041;-76
2022/10/03 00:41:10;;;;;;;1.70;1.58;;;6.90;99.90;;;;;;5017019;28;20092;-77
2022/10/03 00:44:25;;;;;;;1.60;1.50;;;6.90;99.90;;;;;;5030188;28;20046;-77
2022/10/03 00:47:47;;;;;;;3.28;1.33;;;6.90;99.90;;;;;;5028012;28;20488;-77
2022/10/03 00:50:58;;;;;;;1.55;1.45;;;6.90;99.90;;;;;;5004238;28;20119;-77
2022/10/03 00:53:54;;;;;;;1.60;1.50;;;6.90;99.90;;;;;;5027095;28;20049;-77
2022/10/03 00:56:44;;;;;;;1.20;1.10;;;6.90;99.90;;;;;;5010348;28;20050;-76
2022/10/03 00:59:33;;;;;;;2.20;1.50;;;6.90;99.90;;;;;;5011463;28;20085;-77
2022/10/03 01:02:27;;;;;;;1.42;1.33;;;6.90;99.90;;;;;;5019983;28;20045;-77
2022/10/03 01:05:05;;;;;;;1.73;1.63;;;7.00;99.90;;;;;;5029843;28;20053;-77
2022/10/03 01:08:09;;;;;;;1.25;1.17;;;7.00;99.90;;;;;;5014982;28;20064;-76
2022/10/03 01:10:46;;;;;;;2.15;1.50;;;7.00;99.90;;;;;;5013690;28;20076;-77
2022/10/03 01:13:31;;;;;;;1.67;1.58;;;7.00;99.90;;;;;;5011568;28;20095;-76
2022/10/03 01:16:14;;;;;;;1.50;1.30;;;7.00;99.90;;;;;;5011343;28;20092;-77
2022/10/03 01:18:57;;;;;;;1.73;1.63;;;7.00;99.90;;;;;;5011004;28;20057;-77
2022/10/03 01:21:39;;;;;;;5.32;1.98;;;7.00;99.90;;;;;;5016203;28;20052;-77
2022/10/03 01:24:51;;;;;;;1.58;1.48;;;7.00;99.90;;;;;;5019320;28;20068;-77
2022/10/03 01:27:31;;;;;;;5.55;1.55;;;7.00;99.90;;;;;;4970206;28;20051;-77
2022/10/03 01:33:03;;;;;;;1.90;1.73;;;7.00;99.90;;;;;;5018840;28;20053;-77
2022/10/03 01:35:42;;;;;;;2.00;1.60;;;7.00;99.90;;;;;;5010150;28;20088;-77
2022/10/03 01:38:20;;;;;;;1.67;1.58;;;7.00;99.90;;;;;;5044792;28;20049;-77
2022/10/03 01:41:01;;;;;;;1.65;1.55;;;7.00;99.90;;;;;;5026047;28;20422;-77
2022/10/03 01:43:38;;;;;;;1.52;1.40;;;7.10;99.90;;;;;;5014310;28;20061;-77
2022/10/03 01:46:17;;;;;;;1.77;1.63;;;7.10;99.90;;;;;;5027064;28;20045;-77
2022/10/03 01:48:54;;;;;;;1.90;1.80;;;7.10;99.90;;;;;;5015924;28;20530;-77
2022/10/03 01:51:29;;;;;;;1.95;1.63;;;7.10;99.90;;;;;;5023265;28;20050;-77
2022/10/03 01:54:16;;;;;;;1.83;1.73;;;7.10;99.90;;;;;;5031049;28;20053;-76
2022/10/03 01:56:53;;;;;;;2.13;1.92;;;7.10;99.90;;;;;;5031351;28;20136;-76
2022/10/03 01:59:34;;;;;;;1.70;1.60;;;7.10;99.90;;;;;;5026051;28;20054;-77
2022/10/03 02:02:16;;;;;;;1.80;1.70;;;7.20;99.90;;;;;;5013684;28;20042;-77
2022/10/03 02:04:51;;;;;;;1.40;1.30;;;7.20;99.90;;;;;;5023640;28;20053;-77
2022/10/03 02:07:28;;;;;;;1.63;1.52;;;7.20;99.90;;;;;;5024749;28;20407;-77
2022/10/03 02:10:08;;;;;;;1.70;1.60;;;7.20;99.90;;;;;;5019371;28;20547;-76
2022/10/03 02:12:40;;;;;;;1.40;1.30;;;7.20;99.90;;;;;;5012422;28;20058;-76
2022/10/03 02:15:19;;;;;;;1.60;1.50;;;7.20;99.90;;;;;;5011065;28;20144;-76
2022/10/03 02:17:55;;;;;;;1.70;1.40;;;7.20;99.90;;;;;;5035721;28;20587;-77
2022/10/03 02:20:34;;;;;;;2.22;2.05;;;7.30;99.90;;;;;;5009678;28;20100;-77
2022/10/03 02:23:02;;;;;;;1.60;1.50;;;7.30;99.90;;;;;;5030000;28;20046;-77
2022/10/03 02:25:53;;;;;;;2.17;1.60;;;7.20;99.90;;;;;;5027629;28;20050;-77
2022/10/03 02:29:12;;;;;;;2.00;1.73;;;7.30;99.90;;;;;;5028527;28;20060;-77
2022/10/03 02:32:28;;;;;;;1.92;1.83;;;7.30;99.90;;;;;;4991162;28;20050;-76
2022/10/03 02:35:25;;;;;;;2.70;1.85;;;7.30;99.90;;;;;;5001592;28;20081;-77
2022/10/03 02:38:09;;;;;;;1.80;1.70;;;7.30;99.90;;;;;;5026633;28;20054;-76
2022/10/03 02:41:00;;;;;;;1.77;1.67;;;7.30;99.90;;;;;;5027687;28;20053;-77
2022/10/03 02:44:07;;;;;;;2.08;1.83;;;7.40;99.90;;;;;;5021166;28;20248;-77
2022/10/03 02:47:38;;;;;;;1.65;1.55;;;7.40;99.90;;;;;;5024687;28;20049;-77
2022/10/03 02:51:09;;;;;;;2.40;1.90;;;7.40;99.90;;;;;;5015699;28;20046;-77
2022/10/03 02:54:36;;;;;;;2.08;1.98;;;7.40;99.90;;;;;;5012196;28;20046;-77
2022/10/03 02:58:02;;;;;;;2.60;1.55;;;7.50;99.90;;;;;;5007571;28;20145;-77
2022/10/03 03:00:46;;;;;;;1.60;1.50;;;7.50;99.90;;;;;;5020011;28;20053;-77
2022/10/03 03:03:40;;;;;;;3.65;1.80;;;7.60;99.90;;;;;;5027066;28;20064;-77
2022/10/03 03:06:48;;;;;;;1.70;1.60;;;7.60;99.90;;;;;;5019870;28;20053;-77
2022/10/03 03:10:03;;;;;;;2.25;2.05;;;7.60;99.90;;;;;;5024378;28;20420;-76
2022/10/03 03:13:21;;;;;;;2.10;1.88;;;7.70;99.90;;;;;;5016748;28;20069;-76
2022/10/03 03:16:24;;;;;;;2.05;1.60;;;7.70;99.90;;;;;;5014707;28;20142;-77
2022/10/03 03:19:17;;;;;;;2.67;1.70;;;7.70;99.90;;;;;;5024709;28;20536;-77
2022/10/03 03:21:57;;;;;;;2.75;2.30;;;7.70;99.90;;;;;;5031164;28;20068;-78
2022/10/03 03:24:55;;;;;;;2.10;1.90;;;7.70;99.90;;;;;;5028557;28;20049;-76
2022/10/03 03:27:43;;;;;;;2.28;2.00;;;7.70;99.90;;;;;;5012356;28;20054;-76
2022/10/03 03:30:14;;;;;;;1.83;1.67;;;7.70;99.90;;;;;;5045157;28;20053;-76
2022/10/03 03:33:06;;;;;;;2.47;2.10;;;7.70;99.90;;;;;;5043224;28;20502;-76
2022/10/03 03:35:48;;;;;;;7.13;5.75;;;7.70;99.90;;;;;;5022106;28;20050;-76
2022/10/03 03:38:30;;;;;;;5.18;4.70;;;7.70;99.90;;;;;;5018888;28;20053;-76
2022/10/03 03:41:20;;;;;;;2.17;2.00;;;7.70;99.90;;;;;;5030771;28;20061;-76
2022/10/03 03:44:05;;;;;;;2.53;2.08;;;7.70;99.90;;;;;;5017603;28;20533;-77
2022/10/03 03:46:52;;;;;;;2.03;1.80;;;7.70;99.90;;;;;;5033800;28;20057;-77
2022/10/03 03:49:31;;;;;;;2.08;1.88;;;7.70;99.90;;;;;;5031345;28;20045;-76
2022/10/03 03:52:32;;;;;;;2.03;1.80;;;7.80;99.90;;;;;;5022922;28;20414;-79
2022/10/03 03:55:28;;;;;;;3.42;2.55;;;7.80;99.90;;;;;;5011755;28;20145;-76
2022/10/03 03:58:21;;;;;;;2.22;2.00;;;7.80;99.90;;;;;;5014119;28;20073;-76
2022/10/03 04:01:02;;;;;;;;;;;7.80;99.90;;;;;;5023067;28;20062;-76
2022/10/03 04:03:45;;;;;;;1.90;1.70;;;7.80;99.90;;;;;;5020380;28;20436;-76
2022/10/03 04:06:35;;;;;;;3.50;2.05;;;7.90;99.90;;;;;;5027112;28;20055;-77
2022/10/03 04:09:44;;;;;;;2.33;1.98;;;7.90;99.90;;;;;;5023327;28;20046;-77
2022/10/03 04:12:28;;;;;;;5.22;2.15;;;7.90;99.90;;;;;;5021282;28;20053;-76
2022/10/03 04:15:32;;;;;;;3.38;2.03;;;7.90;99.90;;;;;;5049758;28;20135;-76
2022/10/03 04:21:32;;;;;;;3.72;1.70;;;8.00;99.90;;;;;;5026929;28;20072;-77
2022/10/03 04:24:42;;;;;;;2.67;2.03;;;8.10;99.90;;;;;;5021468;28;20042;-77
2022/10/03 04:27:36;;;;;;;5.22;2.30;;;8.10;99.90;;;;;;5023748;28;21525;-77
2022/10/03 04:30:10;;;;;;;12.13;3.72;;;8.10;99.90;;;;;;5017106;28;20046;-77
2022/10/03 04:32:57;;;;;;;4.38;2.53;;;8.20;99.90;;;;;;5025819;28;20045;-77
2022/10/03 04:35:55;;;;;;;2.25;1.83;;;8.20;99.90;;;;;;5026546;28;20050;-78
2022/10/03 04:38:42;;;;;;;4.70;3.22;;;8.20;99.90;;;;;;5029207;28;20096;-75
2022/10/03 04:41:22;;;;;;;6.15;3.10;;;8.30;99.90;;;;;;5013273;28;20449;-73
2022/10/03 04:44:01;;;;;;;3.75;2.22;;;8.30;99.90;;;;;;5030611;28;20203;-74
2022/10/03 04:46:38;;;;;;;3.63;1.75;;;8.30;99.90;;;;;;5023446;28;20053;-73
2022/10/03 04:49:17;;;;;;;6.88;2.60;;;8.40;99.90;;;;;;5010463;28;20096;-73
2022/10/03 04:51:54;;;;;;;3.13;2.22;;;8.40;99.90;;;;;;5022606;28;20480;-74
2022/10/03 04:54:31;;;;;;;3.42;2.10;;;8.50;99.90;;;;;;5017320;28;20513;-77
2022/10/03 04:57:10;;;;;;;7.38;4.28;;;8.50;99.90;;;;;;5015225;28;21100;-74
2022/10/03 04:59:53;;;;;;;4.95;1.92;;;8.50;99.90;;;;;;5030152;28;20058;-74
2022/10/03 05:02:33;;;;;;;1.40;1.30;;;8.60;99.90;;;;;;5030379;28;20042;-74
2022/10/03 05:05:24;;;;;;;4.93;2.20;;;8.60;99.90;;;;;;5026956;28;20531;-75
2022/10/03 05:08:00;;;;;;;2.85;1.73;;;8.60;99.90;;;;;;5022890;28;20131;-78
2022/10/03 05:10:48;;;;;;;4.50;1.40;;;8.60;99.90;;;;;;5041590;28;20133;-78
2022/10/03 05:13:24;;;;;;;2.08;1.40;;;8.70;99.90;;;;;;5027592;28;20050;-74
2022/10/03 05:16:05;;;;;;;26.77;5.38;;;8.70;99.90;;;;;;5029409;28;20228;-74
2022/10/03 05:18:41;;;;;;;35.30;6.50;;;8.70;99.90;;;;;;5007876;28;20050;-75
2022/10/03 05:21:15;;;;;;;3.72;1.90;;;8.80;99.90;;;;;;5009945;28;20108;-74
2022/10/03 05:23:54;;;;;;;3.92;1.90;;;8.80;99.90;;;;;;5019090;28;20053;-75
2022/10/03 05:26:36;;;;;;;6.78;1.42;;;8.80;99.90;;;;;;5023932;28;20104;-75
2022/10/03 05:29:16;;;;;;;3.37;1.60;;;8.80;99.90;;;;;;5026669;28;20057;-78
2022/10/03 05:32:02;;;;;;;5.53;1.50;;;8.80;99.90;;;;;;5015892;28;20037;-78
2022/10/03 05:34:47;;;;;;;3.80;1.20;;;8.80;99.90;;;;;;5023829;28;20049;-74
2022/10/03 05:37:40;;;;;;;3.08;1.25;;;8.80;99.90;;;;;;5030489;28;20045;-74
2022/10/03 05:40:17;;;;;;;1.20;0.93;;;8.80;99.90;;;;;;5027646;28;20099;-74
2022/10/03 05:43:03;;;;;;;4.03;1.50;;;8.90;99.90;;;;;;5022371;28;20091;-74
2022/10/03 05:45:48;;;;;;;5.18;1.40;;;8.90;99.90;;;;;;5025121;28;20429;-74
2022/10/03 05:48:32;;;;;;;2.65;1.33;;;8.90;99.90;;;;;;5031325;28;20050;-74
2022/10/03 05:51:38;;;;;;;5.07;1.45;;;9.00;99.90;;;;;;5025205;28;20457;-77
2022/10/03 05:54:48;;;;;;;6.20;1.33;;;9.00;99.90;;;;;;5029778;28;20130;-77
2022/10/03 05:58:19;;;;;;;7.38;1.73;;;9.20;99.90;;;;;;5030399;28;20049;-76
2022/10/03 06:01:21;;;;;;;3.28;1.67;;;9.20;99.90;;;;;;5023154;28;20045;-77
2022/10/03 06:04:23;;;;;;;3.88;1.40;;;9.30;99.90;;;;;;5028707;28;20061;-78
2022/10/03 06:07:08;;;;;;;6.07;2.38;;;9.30;99.90;;;;;;5020145;28;20473;-80
2022/10/03 06:10:45;;;;;;;4.78;1.52;;;9.30;99.90;;;;;;5022339;28;20465;-78
2022/10/03 06:13:25;;;;;;;2.72;1.00;;;9.30;99.90;;;;;;4963811;28;20134;-78
2022/10/03 06:16:05;;;;;;;3.50;0.98;;;9.30;99.90;;;;;;4987231;28;20062;-77
2022/10/03 06:19:07;;;;;;;6.70;1.10;;;9.30;99.90;;;;;;5007838;28;20081;-77
2022/10/03 06:22:38;;;;;;;6.50;1.63;;;9.30;99.90;;;;;;5027441;28;20060;-77
2022/10/03 06:25:47;;;;;;;2.08;1.08;;;9.30;99.90;;;;;;5024089;28;20065;-76
2022/10/03 06:29:02;;;;;;;2.08;0.95;;;9.30;99.90;;;;;;5025162;28;20103;-74
2022/10/03 06:32:18;;;;;;;1.92;1.15;;;9.30;99.90;;;;;;5025143;28;20061;-74
2022/10/03 06:35:29;;;;;;;4.03;1.02;;;9.30;99.90;;;;;;5027230;28;20050;-75
2022/10/03 06:38:48;;;;;;;1.55;1.42;;;9.30;99.90;;;;;;5024697;28;20045;-75
2022/10/03 06:42:06;;;;;;;2.35;0.80;;;9.20;99.90;;;;;;5003313;28;20057;-74
2022/10/03 06:45:01;;;;;;;1.52;1.30;;;9.30;99.90;;;;;;5028087;28;20523;-75
2022/10/03 06:47:50;;;;;;;2.90;1.00;;;9.30;99.90;;;;;;5030557;28;20151;-75
2022/10/03 06:50:44;;;;;;;0.82;0.80;;;9.30;99.90;;;;;;5028033;28;20043;-74
2022/10/03 06:53:40;;;;;;;2.45;1.20;;;9.30;99.90;;;;;;5043343;28;20073;-74
2022/10/03 06:56:57;;;;;;;1.88;1.02;;;9.40;99.90;;;;;;5031186;28;20087;-75
2022/10/03 07:00:05;;;;;;;2.35;1.17;;;9.40;99.90;;;;;;5011764;28;20140;-74
2022/10/03 07:03:21;;;;;;;2.45;1.30;;;9.40;99.90;;;;;;5028917;28;20058;-74
2022/10/03 07:06:38;;;;;;;1.67;0.90;;;9.50;99.90;;;;;;5044673;28;20049;-75
2022/10/03 07:09:52;;;;;;;4.60;2.10;;;9.50;99.90;;;;;;5027768;28;20049;-75
2022/10/03 07:12:56;;;;;;;8.25;1.13;;;9.50;99.90;;;;;;5033882;28;20148;-74
2022/10/03 07:16:23;;;;;;;3.00;2.05;;;9.60;99.90;;;;;;5026161;28;20049;-74
2022/10/03 07:19:23;;;;;;;1.05;1.00;;;9.60;99.90;;;;;;4983902;28;20056;-74
2022/10/03 07:22:43;;;;;;;2.90;1.88;;;9.60;99.90;;;;;;5026648;28;20088;-74
2022/10/03 07:26:06;;;;;;;3.58;2.17;;;9.50;99.90;;;;;;5034647;28;20053;-74
2022/10/03 07:29:22;;;;;;;5.03;2.13;;;9.50;99.90;;;;;;5012716;28;20050;-77
2022/10/03 07:32:19;;;;;;;3.90;1.10;;;9.50;99.90;;;;;;5016038;28;20057;-77
2022/10/03 07:38:56;;;;;;;1.88;1.70;;;9.50;99.90;;;;;;5022404;28;20045;-78
2022/10/03 07:39:01;;;;;;;3.13;2.40;;;9.50;99.90;;;;;;5011843;28;20048;-78
2022/10/03 07:42:20;;;;;;;6.03;1.80;;;9.50;99.90;;;;;;4989206;28;20512;-77
2022/10/03 07:45:29;;;;;;;4.28;1.67;;;9.50;99.90;;;;;;5029950;28;20073;-77
2022/10/03 07:48:39;;;;;;;6.07;1.60;;;9.60;99.90;;;;;;5014940;28;20131;-74
2022/10/03 07:51:19;;;;;;;2.53;1.20;;;9.60;99.90;;;;;;5029690;28;20136;-75
2022/10/03 07:54:24;;;;;;;1.42;1.23;;;9.60;99.90;;;;;;5027840;28;20077;-75
2022/10/03 07:57:23;;;;;;;4.28;1.10;;;9.70;99.90;;;;;;5027455;28;20058;-74
2022/10/03 08:00:23;;;;;;;3.08;1.02;;;9.80;99.90;;;;;;5029176;28;20045;-75
2022/10/03 08:03:37;;;;;;;4.05;1.65;;;9.90;99.90;;;;;;5026762;28;20052;-76
2022/10/03 08:06:14;;;;;;;;;;;10.00;99.90;;;;;;5025996;28;20148;-76
2022/10/03 08:09:35;;;;;;;3.85;1.00;;;10.00;99.90;;;;;;5030376;28;19929;-76
2022/10/03 08:13:03;;;;;;;1.58;0.90;;;10.00;99.90;;;;;;5015832;28;20055;-76
2022/10/03 08:15:59;;;;;;;3.78;1.38;;;9.90;99.90;;;;;;5023139;28;20058;-75
2022/10/03 08:19:05;;;;;;;2.58;0.90;;;9.90;99.90;;;;;;5030012;28;20041;-75
2022/10/03 08:21:51;;;;;;;2.92;0.88;;;9.90;99.90;;;;;;5025590;28;20049;-74
2022/10/03 08:24:55;;;;;;;3.33;1.20;;;9.80;99.90;;;;;;5030488;28;20049;-75
2022/10/03 08:27:52;;;;;;;;;;;9.80;99.90;;;;;;5013113;28;20412;-75
2022/10/03 08:30:32;;;;;;;1.95;0.82;;;9.80;99.90;;;;;;5024632;28;20436;-75
2022/10/03 08:33:35;;;;;;;1.50;1.00;;;9.80;99.90;;;;;;5025255;28;20144;-76
2022/10/03 08:37:05;;;;;;;3.33;1.02;;;9.90;99.90;;;;;;5025272;28;20053;-75
2022/10/03 08:39:58;;;;;;;4.25;2.15;;;9.90;99.90;;;;;;5029419;28;20421;-75
2022/10/03 08:43:35;;;;;;;3.95;1.30;;;9.90;99.90;;;;;;5030179;28;20062;-74
2022/10/03 08:46:25;;;;;;;0.90;0.82;;;10.00;99.90;;;;;;4930309;29;20055;-75
2022/10/03 08:49:16;;;;;;;2.03;1.02;;;10.00;99.90;;;;;;4930498;29;20098;-75
2022/10/03 08:52:28;;;;;;;3.10;1.15;;;10.00;99.90;;;;;;5018509;28;20064;-74
2022/10/03 08:55:45;;;;;;;4.15;1.50;;;10.10;99.90;;;;;;5041496;28;20072;-74
2022/10/03 08:58:55;;;;;;;4.25;1.20;;;10.10;99.90;;;;;;5028121;28;20143;-73
2022/10/03 09:02:16;;;;;;;41.75;3.05;;;10.20;99.90;;;;;;5011077;28;20149;-74
2022/10/03 09:05:34;;;;;;;8.15;2.40;;;10.30;99.90;;;;;;4988182;28;21550;-77
2022/10/03 09:08:39;;;;;;;3.47;1.33;;;10.30;99.90;;;;;;5043604;28;20054;-74
2022/10/03 09:11:51;;;;;;;3.03;1.48;;;10.40;99.90;;;;;;5010925;28;20077;-76
2022/10/03 09:15:02;;;;;;;1.45;1.10;;;10.40;99.90;;;;;;4999089;28;20132;-76
2022/10/03 09:18:18;;;;;;;4.93;1.88;;;10.40;99.90;;;;;;5025572;28;20053;-78
2022/10/03 09:21:27;;;;;;;3.22;1.60;;;10.40;99.90;;;;;;5028378;28;20075;-77
2022/10/03 09:24:24;;;;;;;1.67;1.15;;;10.30;99.90;;;;;;5021019;28;20401;-75
2022/10/03 09:27:25;;;;;;;5.90;1.05;;;10.40;99.90;;;;;;5028425;28;20421;-75
2022/10/03 09:30:24;;;;;;;3.50;1.10;;;10.40;99.90;;;;;;5030336;28;20149;-76
2022/10/03 09:33:48;;;;;;;2.65;0.98;;;10.30;99.90;;;;;;5027099;28;20415;-79
2022/10/03 09:36:54;;;;;;;3.55;1.30;;;10.30;99.90;;;;;;5023514;28;20053;-75
2022/10/03 09:40:02;;;;;;;3.00;0.95;;;10.20;99.90;;;;;;5030619;28;20053;-75
2022/10/03 09:43:14;;;;;;;5.22;1.08;;;10.20;99.90;;;;;;5018743;28;20091;-75
2022/10/03 09:46:43;;;;;;;3.30;1.10;;;10.20;99.90;;;;;;5026969;28;20121;-74
2022/10/03 09:49:59;;;;;;;1.38;1.27;;;10.20;99.90;;;;;;5008997;28;20053;-75
2022/10/03 09:52:46;;;;;;;1.48;1.10;;;10.10;99.90;;;;;;5028764;28;20178;-78
2022/10/03 09:55:36;;;;;;;1.40;1.00;;;10.10;99.90;;;;;;5027657;28;20073;-78
2022/10/03 09:58:32;;;;;;;2.00;1.20;;;10.00;99.90;;;;;;5028366;28;20083;-78
2022/10/03 10:01:19;;;;;;;3.42;1.00;;;10.00;99.90;;;;;;5029573;28;20154;-78
2022/10/03 10:04:31;;;;;;;2.05;0.90;;;10.00;99.90;;;;;;5027956;28;20053;-78
2022/10/03 10:07:44;;;;;;;1.75;1.10;;;10.00;99.90;;;;;;5027312;28;20057;-79
2022/10/03 10:11:00;;;;;;;3.75;1.40;;;10.00;99.90;;;;;;4992867;28;20057;-77
2022/10/03 10:14:16;;;;;;;2.22;1.25;;;9.90;99.90;;;;;;5018853;28;20071;-79
2022/10/03 10:17:43;;;;;;;3.72;1.75;;;9.90;99.90;;;;;;5020355;28;21340;-78
2022/10/03 10:20:48;;;;;;;3.35;1.13;;;10.00;99.90;;;;;;4944399;28;20062;-77
2022/10/03 10:23:37;;;;;;;2.00;1.73;;;9.90;99.90;;;;;;5020570;28;20057;-79
2022/10/03 10:27:04;;;;;;;3.58;1.13;;;9.90;99.90;;;;;;5023447;28;20041;-78
2022/10/03 10:30:08;;;;;;;2.88;1.63;;;9.90;99.90;;;;;;5036717;28;20053;-79
2022/10/03 10:33:39;;;;;;;4.13;1.10;;;9.80;99.90;;;;;;5031739;28;20447;-78
2022/10/03 10:37:00;;;;;;;2.30;0.90;;;9.80;99.90;;;;;;4963894;28;20072;-78
2022/10/03 10:40:01;;;;;;;3.38;0.82;;;9.80;99.90;;;;;;5022404;28;20140;-77
2022/10/03 10:43:05;;;;;;;1.95;1.02;;;9.80;99.90;;;;;;5016538;28;20057;-76
2022/10/03 10:45:55;;;;;;;1.45;0.80;;;9.90;99.90;;;;;;5029179;28;20054;-78
2022/10/03 10:49:13;;;;;;;4.65;1.10;;;9.90;99.90;;;;;;5022317;28;20055;-78
2022/10/03 10:52:31;;;;;;;1.65;0.90;;;9.90;99.90;;;;;;5035019;28;20041;-76
2022/10/03 10:56:05;;;;;;;1.40;1.20;;;9.80;99.90;;;;;;5005437;28;20064;-79
2022/10/03 10:59:53;;;;;;;2.20;0.80;;;9.90;99.90;;;;;;5024112;28;20081;-78
2022/10/03 11:03:27;;;;;;;6.43;0.90;;;9.90;99.90;;;;;;4980686;28;20053;-76
2022/10/03 11:06:54;;;;;;;1.08;1.08;;;9.90;99.90;;;;;;5022341;28;20041;-79
2022/10/03 11:09:46;;;;;;;2.90;0.88;;;9.80;99.90;;;;;;5023535;28;20049;-77
2022/10/03 11:12:59;;;;;;;1.20;1.10;;;9.90;99.90;;;;;;5023392;28;20482;-77
2022/10/03 11:16:02;;;;;;;1.08;0.80;;;9.90;99.90;;;;;;4993067;28;20053;-80
2022/10/03 11:19:25;;;;;;;1.30;0.88;;;10.00;99.90;;;;;;5026155;28;20084;-78
2022/10/03 11:22:37;;;;;;;4.28;0.95;;;10.00;99.90;;;;;;5027344;28;20057;-77
2022/10/03 11:26:25;;;;;;;1.70;0.80;;;10.00;99.90;;;;;;5025789;28;20539;-78
2022/10/03 11:29:45;;;;;;;10.68;6.07;;;10.10;99.90;;;;;;5010196;28;20416;-76
2022/10/03 11:33:26;;;;;;;7.25;1.50;;;10.00;99.90;;;;;;4984942;28;20057;-77
2022/10/03 11:36:48;;;;;;;0.77;0.77;;;10.10;99.90;;;;;;5017779;28;20176;-79
2022/10/03 11:39:26;;;;;;;1.88;0.95;;;10.10;99.90;;;;;;5031282;28;20057;-76
2022/10/03 11:42:02;;;;;;;2.20;1.00;;;10.10;99.90;;;;;;5028897;28;20144;-76
2022/10/03 11:44:32;;;;;;;3.40;0.75;;;10.10;99.90;;;;;;5028251;28;20142;-75
2022/10/03 11:47:32;;;;;;;2.53;1.10;;;10.10;99.90;;;;;;5027187;28;20052;-78
2022/10/03 11:50:37;;;;;;;2.17;0.88;;;10.10;99.90;;;;;;5037327;28;20524;-76
2022/10/03 11:53:28;;;;;;;3.05;1.05;;;10.10;99.90;;;;;;5027612;28;20045;-77
2022/10/03 11:56:14;;;;;;;0.70;0.70;;;10.10;99.90;;;;;;5031068;28;20076;-78
2022/10/03 11:59:19;;;;;;;3.60;2.95;;;10.10;99.90;;;;;;5015139;28;20521;-77
2022/10/03 12:02:11;;;;;;;2.28;0.90;;;10.10;99.90;;;;;;5011708;28;20053;-76
2022/10/03 12:04:51;;;;;;;3.90;1.10;;;10.10;99.90;;;;;;5028413;28;20104;-76
2022/10/03 12:10:47;;;;;;;1.23;1.02;;;10.00;99.90;;;;;;5007016;28;20053;-73
2022/10/03 12:13:20;;;;;;;0.80;0.63;;;10.00;99.90;;;;;;5038592;28;20076;-74
2022/10/03 12:15:50;;;;;;;0.57;0.57;;;10.10;99.90;;;;;;5028641;28;20500;-75
2022/10/03 12:18:28;;;;;;;1.10;1.00;;;10.00;99.90;;;;;;5030570;28;20049;-74
2022/10/03 12:21:08;;;;;;;3.67;1.10;;;10.00;99.90;;;;;;5025961;28;20509;-74
2022/10/03 12:24:04;;;;;;;5.35;2.05;;;9.90;99.90;;;;;;5026176;28;20081;-74
2022/10/03 12:26:48;;;;;;;1.48;0.88;;;9.90;99.90;;;;;;5031005;28;20067;-75
2022/10/03 12:29:20;;;;;;;10.93;1.67;;;9.90;99.90;;;;;;5026528;28;20099;-74
2022/10/03 12:32:05;;;;;;;1.15;0.73;;;9.90;99.90;;;;;;5027888;28;20749;-74
2022/10/03 12:34:40;;;;;;;1.92;1.05;;;9.90;99.90;;;;;;5030647;28;20049;-77
2022/10/03 12:37:34;;;;;;;2.78;1.05;;;9.80;99.90;;;;;;5030556;28;20077;-78
2022/10/03 12:40:09;;;;;;;15.98;1.45;;;9.90;99.90;;;;;;5029098;28;20446;-77
2022/10/03 12:42:47;;;;;;;4.18;1.00;;;9.80;99.90;;;;;;5024463;28;20073;-78
2022/10/03 12:45:25;;;;;;;0.82;0.82;;;9.80;99.90;;;;;;5030033;28;20111;-76
2022/10/03 12:48:46;;;;;;;1.33;0.98;;;9.80;99.90;;;;;;5029712;28;20060;-78
2022/10/03 12:51:51;;;;;;;2.05;0.98;;;9.70;99.90;;;;;;4968554;28;20145;-78
2022/10/03 12:54:42;;;;;;;1.15;1.05;;;9.70;99.90;;;;;;5030210;28;20046;-75
2022/10/03 12:57:56;;;;;;;2.88;1.42;;;9.60;99.90;;;;;;5028444;28;20072;-74
2022/10/03 13:00:28;;;;;;;1.25;1.00;;;9.50;99.90;;;;;;5022442;28;20081;-74
2022/10/03 13:03:20;;;;;;;4.28;1.77;;;9.50;99.90;;;;;;5019028;28;20060;-77
2022/10/03 13:06:28;;;;;;;3.22;0.80;;;9.50;99.90;;;;;;5024818;28;20445;-75
2022/10/03 13:09:21;;;;;;;1.98;0.93;;;9.50;99.90;;;;;;5001069;28;20049;-76
2022/10/03 13:12:07;;;;;;;1.00;1.00;;;9.40;99.90;;;;;;5028058;28;20135;-77
2022/10/03 13:15:28;;;;;;;0.88;0.70;;;9.30;99.90;;;;;;5031986;28;20077;-76
2022/10/03 13:18:09;;;;;;;2.35;1.10;;;9.20;99.90;;;;;;5027216;28;20077;-78
2022/10/03 13:20:41;;;;;;;3.95;1.70;;;9.20;99.90;;;;;;5030335;28;20054;-79
2022/10/03 13:23:19;;;;;;;2.47;1.10;;;9.20;99.90;;;;;;5013362;28;20057;-83
2022/10/03 13:25:58;;;;;;;1.50;1.33;;;9.20;99.90;;;;;;5028457;28;20417;-80
2022/10/03 13:28:34;;;;;;;1.02;0.93;;;9.20;99.90;;;;;;5025568;28;20085;-78
2022/10/03 13:31:08;;;;;;;2.55;2.10;;;9.20;99.90;;;;;;5025716;28;20052;-76
2022/10/03 13:33:45;;;;;;;1.58;1.17;;;9.10;99.90;;;;;;5027131;28;20136;-81
2022/10/03 13:36:22;;;;;;;2.38;1.10;;;9.10;99.90;;;;;;5020534;28;20458;-82
2022/10/03 13:39:10;;;;;;;5.95;3.63;;;9.00;99.90;;;;;;5029816;28;20053;-81
2022/10/03 13:41:59;;;;;;;3.13;1.80;;;9.00;99.90;;;;;;5028144;28;20052;-78
2022/10/03 13:44:37;;;;;;;5.55;2.53;;;9.00;99.90;;;;;;5024670;28;20369;-79
2022/10/03 13:47:23;;;;;;;3.75;1.20;;;9.00;99.90;;;;;;5027071;28;20065;-79
2022/10/03 13:50:00;;;;;;;3.63;2.33;;;9.00;99.90;;;;;;5027385;28;20119;-80
2022/10/03 13:52:38;;;;;;;5.93;2.55;;;9.00;99.90;;;;;;5024967;28;20053;-78
2022/10/03 13:55:25;;;;;;;4.20;1.67;;;9.00;99.90;;;;;;5026710;28;20038;-79
2022/10/03 13:58:22;;;;;;;4.13;1.80;;;8.90;99.90;;;;;;5035101;28;20446;-76
2022/10/03 14:01:12;;;;;;;3.00;1.90;;;8.90;99.90;;;;;;5026517;28;20099;-73
2022/10/03 14:04:16;;;;;;;10.10;3.80;;;8.90;99.90;;;;;;5027345;28;20117;-75
2022/10/03 14:06:51;;;;;;;2.33;1.00;;;8.90;99.90;;;;;;5025415;28;20049;-73
2022/10/03 14:09:38;;;;;;;1.52;0.90;;;8.90;99.90;;;;;;5025646;28;20056;-76
2022/10/03 14:12:21;;;;;;;2.33;1.20;;;8.90;99.90;;;;;;5026298;28;20351;-75
2022/10/03 14:15:23;;;;;;;1.55;0.95;;;8.90;99.90;;;;;;5026842;28;20073;-74
2022/10/03 14:18:00;;;;;;;1.48;1.20;;;8.90;99.90;;;;;;5005671;28;20398;-73
2022/10/03 14:20:33;;;;;;;1.90;1.20;;;8.90;99.90;;;;;;5027083;28;20049;-75
2022/10/03 14:23:16;;;;;;;3.08;1.17;;;8.90;99.90;;;;;;5026425;28;20084;-75
2022/10/03 14:25:52;;;;;;;1.40;1.30;;;8.90;99.90;;;;;;5026448;28;20052;-75
2022/10/03 14:28:25;;;;;;;1.30;1.10;;;8.80;99.90;;;;;;5018939;28;20077;-74
2022/10/03 14:31:05;;;;;;;2.72;1.30;;;8.80;99.90;;;;;;5025283;28;20053;-73
2022/10/03 14:33:43;;;;;;;1.25;1.10;;;8.70;99.90;;;;;;5028495;28;20075;-75
2022/10/03 14:36:28;;;;;;;4.47;2.80;;;8.70;99.90;;;;;;5029042;28;20632;-74
2022/10/03 14:39:27;;;;;;;2.13;0.95;;;8.70;99.90;;;;;;5027659;28;20412;-73
2022/10/03 14:42:29;;;;;;;2.95;0.90;;;8.70;99.90;;;;;;5029089;28;20136;-74
2022/10/03 14:45:00;;;;;;;1.27;1.15;;;8.70;99.90;;;;;;5007145;28;20487;-76
2022/10/03 14:47:37;;;;;;;1.30;1.00;;;8.60;99.90;;;;;;5029440;28;20054;-79
2022/10/03 14:50:07;;;;;;;3.25;1.63;;;8.60;99.90;;;;;;5029310;28;20056;-78
2022/10/03 14:52:43;;;;;;;1.48;1.10;;;8.60;99.90;;;;;;5029451;28;20410;-78
2022/10/03 14:55:18;;;;;;;4.00;1.27;;;8.60;99.90;;;;;;5027084;28;20042;-80
2022/10/03 14:57:51;;;;;;;1.02;0.98;;;8.60;99.90;;;;;;5021431;28;20058;-78
2022/10/03 15:00:38;;;;;;;3.15;1.58;;;8.60;99.90;;;;;;5028297;28;20050;-81
2022/10/03 15:03:38;;;;;;;4.10;1.80;;;8.60;99.90;;;;;;5026568;28;20068;-80
2022/10/03 15:06:35;;;;;;;1.30;1.20;;;8.60;99.90;;;;;;4931852;29;20047;-81
2022/10/03 15:09:10;;;;;;;2.78;1.10;;;8.60;99.90;;;;;;5030773;28;20592;-76
2022/10/03 15:11:47;;;;;;;2.05;1.58;;;8.50;99.90;;;;;;5027537;28;20057;-74
2022/10/03 15:14:15;;;;;;;1.63;1.20;;;8.40;99.90;;;;;;5022404;28;20049;-73
2022/10/03 15:16:49;;;;;;;3.35;1.35;;;8.40;99.90;;;;;;5031853;28;20046;-74
2022/10/03 15:19:21;;;;;;;2.88;1.42;;;8.30;99.90;;;;;;5030151;28;20095;-73
2022/10/03 15:21:53;;;;;;;2.50;1.02;;;8.30;99.90;;;;;;5031614;28;20046;-74
2022/10/03 15:24:27;;;;;;;3.17;0.80;;;8.20;99.90;;;;;;5033826;28;20076;-75
2022/10/03 15:27:03;;;;;;;0.80;0.75;;;8.30;99.90;;;;;;5031259;28;20131;-75
2022/10/03 15:29:34;;;;;;;1.10;1.00;;;8.30;99.90;;;;;;5032557;28;20052;-75